Country
Station

 

Weather  for  Madrid/Torrejon  -  Spain    Spain

  
18 °C (64 °F)
    
 
 

Current METAR for Madrid/Torrejon is :

LETO 161300Z 25008KT 200V290 CAVOK 18/07 Q1020 NOSIG

 

This is a report for Madrid/Torrejon - Spain.
 
The report was made 8 minutes ago, at 13:00 UTC .
The wind was blowing at a speed of 4.1 meters per second (9.2 miles per hour) from west/southwest (250°), varying between south/southwest (200°) and west/northwest (290°).
 
The temperature was 18 °C (64 °F), with a dew-point at 7 °C (45 °F).
The atmospheric pressure was 1020 hPa (30.12 inHg).
The relative humidity was 48.5%.
 
There were no clouds below 1500 meter (5000 feet) and no cumulonimbus clouds.
 
The overall visibility was greater than 10 kilometers (6.2 miles).
 

 
 
 
 

Country :   A   B   C   D   E   F   G   H   I   J   K   L   M   N   O   P   Q   R   S   T   U   V   W   Y   Z

 

Site Info  |  Disclaimer  |  Credits  |  Privacy
Contact us  |  Add to favorites
© 2013-2019 METARs - All rights reserved